Latest Coastal Weather Observations for Point Fawcett

IDD60701

Issued at 12:45 am CST Friday 31 October 2014 (issued every 10 minutes, with the page automatically refreshed every 10 minutes)

About coastal observations | Map of coastal stations | Coastal observations for NT | Marine services | Other Formats
Station Details ID: 200731 Name: POINT FAWCETT Lat: -11.76 Lon: 130.03 Height: 6.5 m
Data from the previous 72 hours. | See also: Recent months at Point Fawcett
Date/Time
CST
Temp

°C
Wind Pressure Rain
since 9am
mm
Weather Cloud Vis
km
Sea
Height
m
Swell
Dir
 
Speed
knots
Gust
knots
hPa Trend Height
m
Period
s
Dir
31/12:30am 26.7 NNW 5 8 1009.0 - - - - - - - - -
31/12:00am 26.8 NNW 6 8 1009.1 - - - - - - - - -
 
Date/Time
CST
Temp

°C
Wind Pressure Rain
since 9am
mm
Weather Cloud Vis
km
Sea
Height
m
Swell
Dir
 
Speed
knots
Gust
knots
hPa Trend Height
m
Period
s
Dir
30/11:30pm 26.9 NNW 6 8 1009.4 - - - - - - - - -
30/11:00pm 27.0 N 7 9 1009.5 - - - - - - - - -
30/10:00pm 27.2 NNW 8 11 1009.4 - - - - - - - - -
30/09:30pm 27.2 N 7 10 1009.0 - - - - - - - - -
30/09:00pm 27.2 N 8 11 1008.9 - - - - - - - - -
30/08:30pm 27.2 N 8 10 1008.9 - - - - - - - - -
30/08:00pm 27.2 N 8 10 1008.7 - - - - - - - - -
30/07:30pm 27.5 N 6 9 1008.7 - - - - - - - - -
30/07:00pm 27.8 N 6 8 1008.7 - - - - - - - - -
30/06:30pm 28.4 NNW 6 8 1008.5 - - - - - - - - -
30/06:00pm 29.6 NNW 6 9 1008.3 - - - - - - - - -
30/05:30pm 29.9 NNW 6 9 1008.1 - - - - - - - - -
30/05:00pm 30.3 NNW 7 9 1008.2 - - - - - - - - -
30/04:30pm 30.6 NW 7 9 1008.1 - - - - - - - - -
30/04:00pm 31.7 NW 8 10 1008.4 - - - - - - - - -
30/03:30pm 31.9 NW 7 9 1008.5 - - - - - - - - -
30/03:00pm 31.7 WNW 8 10 1008.6 - - - - - - - - -
30/02:30pm 32.1 WNW 7 9 1009.0 - - - - - - - - -
30/02:00pm 31.9 NW 8 10 1009.1 - - - - - - - - -
30/01:30pm 32.6 NNW 9 11 1009.6 - - - - - - - - -
30/01:00pm 32.3 NW 9 12 1009.9 - - - - - - - - -
30/12:30pm 32.0 NNW 10 13 1010.5 - - - - - - - - -
30/12:00pm 32.2 NNW 9 11 1010.5 - - - - - - - - -
30/11:30am 32.0 NNW 8 11 1010.8 - - - - - - - - -
30/11:00am 32.6 N 8 11 1011.2 - - - - - - - - -
30/10:30am 31.3 N 7 10 1011.5 - - - - - - - - -
30/10:00am 30.8 N 7 10 1011.5 - - - - - - - - -
30/09:30am 30.9 N 7 10 1011.7 - - - - - - - - -
30/09:00am 30.3 NNE 6 9 1011.6 - - - - - - - - -
30/08:30am 29.7 NNE 5 8 1011.6 - - - - - - - - -
30/08:00am 27.7 NE 4 6 1011.3 - - - - - - - - -
30/07:30am 25.3 ENE 4 5 1010.9 - - - - - - - - -
30/07:00am 22.2 E 5 5 1010.6 - - - - - - - - -
30/06:30am 20.4 E 5 5 1010.2 - - - - - - - - -
30/06:00am 20.3 E 4 4 1009.8 - - - - - - - - -
30/05:30am 20.7 E 4 4 1009.7 - - - - - - - - -
30/05:00am 21.0 E 4 5 1009.5 - - - - - - - - -
30/04:30am 21.6 E 4 5 1009.5 - - - - - - - - -
30/04:00am 22.1 E 4 5 1009.6 - - - - - - - - -
30/03:30am 22.6 ESE 5 6 1009.6 - - - - - - - - -
30/03:00am 22.0 ESE 4 5 1009.6 - - - - - - - - -
30/02:30am 21.9 ESE 4 6 1009.7 - - - - - - - - -
30/02:00am 22.2 ESE 4 4 1009.9 - - - - - - - - -
30/01:30am 22.5 E 4 4 1010.3 - - - - - - - - -
30/01:00am 23.1 CALM 0 0 1010.3 - - - - - - - - -
30/12:30am 23.8 CALM 0 0 1010.6 - - - - - - - - -
30/12:00am 25.2 WNW 4 6 1010.7 - - - - - - - - -
 
Date/Time
CST
Temp

°C
Wind Pressure Rain
since 9am
mm
Weather Cloud Vis
km
Sea
Height
m
Swell
Dir
 
Speed
knots
Gust
knots
hPa Trend Height
m
Period
s
Dir
29/11:30pm 26.9 NW 5 7 1010.9 - - - - - - - - -
29/11:00pm 27.1 NW 5 7 1011.1 - - - - - - - - -
29/10:30pm 27.2 NNW 6 8 1011.0 - - - - - - - - -
29/10:00pm 27.4 NNW 7 10 1010.8 - - - - - - - - -
29/09:30pm 27.6 NNW 8 11 1010.8 - - - - - - - - -
29/09:00pm 27.7 NNW 8 11 1010.7 - - - - - - - - -
29/08:30pm 27.7 NNW 8 11 1010.6 - - - - - - - - -
29/08:00pm 27.8 NNW 8 11 1010.3 - - - - - - - - -
29/07:30pm 27.9 N 9 11 1010.0 - - - - - - - - -
29/07:00pm 28.3 NNW 8 11 1009.7 - - - - - - - - -
29/06:30pm 28.7 NNW 9 12 1009.4 - - - - - - - - -
29/06:00pm 29.8 NNW 8 10 1009.2 - - - - - - - - -
29/05:30pm 30.5 NNW 7 9 1009.3 - - - - - - - - -
29/05:00pm 30.9 NW 9 11 1009.2 - - - - - - - - -
29/04:30pm 31.0 W 7 9 1009.0 - - - - - - - - -
29/04:00pm 31.8 WSW 7 11 1009.1 - - - - - - - - -
29/03:30pm 31.7 WSW 10 13 1009.1 - - - - - - - - -
29/03:00pm 33.0 SSW 8 13 1009.3 - - - - - - - - -
29/02:30pm 32.8 S 7 11 1009.5 - - - - - - - - -
29/02:00pm 33.4 SSW 8 13 1009.8 - - - - - - - - -
29/01:30pm 33.5 S 6 11 1010.4 - - - - - - - - -
29/01:00pm 32.5 S 7 13 1010.9 - - - - - - - - -
29/12:30pm 31.1 NNW 5 8 1011.7 - - - - - - - - -
29/12:00pm 32.2 NW 7 10 1012.2 - - - - - - - - -
29/11:30am 31.9 NW 7 9 1012.7 - - - - - - - - -
29/11:00am 30.7 NW 5 7 1013.0 - - - - - - - - -
29/10:30am 31.4 N 6 8 1012.8 - - - - - - - - -
29/10:00am 31.6 N 6 8 1012.6 - - - - - - - - -
29/09:30am 31.0 E 6 9 1013.0 - - - - - - - - -
29/09:00am 30.2 ENE 4 6 1012.9 - - - - - - - - -
29/08:30am 29.2 ENE 5 6 1012.6 - - - - - - - - -
29/08:00am 26.6 E 4 6 1012.4 - - - - - - - - -
29/07:30am 24.8 ESE 4 6 1012.0 - - - - - - - - -
29/07:00am 23.4 E 5 6 1011.8 - - - - - - - - -
29/06:30am 21.9 E 5 6 1011.5 - - - - - - - - -
29/06:00am 21.6 E 5 5 1011.2 - - - - - - - - -
29/05:30am 22.4 E 5 6 1010.9 - - - - - - - - -
29/05:00am 22.2 E 5 6 1010.8 - - - - - - - - -
29/04:30am 21.7 E 5 5 1010.5 - - - - - - - - -
29/04:00am 21.7 E 4 6 1010.4 - - - - - - - - -
29/03:30am 21.7 ESE 4 5 1010.3 - - - - - - - - -
29/03:00am 21.9 ESE 4 5 1010.3 - - - - - - - - -
29/02:30am 22.2 ESE 4 5 1010.7 - - - - - - - - -
29/02:00am 22.5 ESE 4 5 1010.9 - - - - - - - - -
29/01:30am 22.7 E 4 4 1011.0 - - - - - - - - -
29/01:00am 23.3 ESE 3 4 1011.0 - - - - - - - - -
29/12:30am 24.2 CALM 0 0 1010.9 - - - - - - - - -
29/12:00am 25.8 NNW 2 5 1010.8 - - - - - - - - -
 
Date/Time
CST
Temp

°C
Wind Pressure Rain
since 9am
mm
Weather Cloud Vis
km
Sea
Height
m
Swell
Dir
 
Speed
knots
Gust
knots
hPa Trend Height
m
Period
s
Dir
28/11:30pm 27.3 WNW 6 7 1010.7 - - - - - - - - -
28/11:00pm 27.5 NW 6 8 1010.8 - - - - - - - - -
28/10:30pm 27.6 NW 7 8 1010.7 - - - - - - - - -
28/10:00pm 27.6 NW 7 9 1010.4 - - - - - - - - -
28/09:30pm 27.8 NNW 8 10 1010.3 - - - - - - - - -
28/09:00pm 27.9 NNW 9 12 1010.0 - - - - - - - - -
28/08:30pm 28.0 NNW 9 11 1009.9 - - - - - - - - -
28/08:00pm 28.0 NNW 10 13 1009.8 - - - - - - - - -
28/07:30pm 28.3 NNW 10 13 1009.6 - - - - - - - - -
28/07:00pm 28.4 NNW 9 12 1009.2 - - - - - - - - -
28/06:30pm 28.6 NNW 9 12 1008.8 - - - - - - - - -
28/06:00pm 29.8 NNW 10 13 1008.6 - - - - - - - - -
28/05:30pm 30.4 NNW 10 12 1008.5 - - - - - - - - -
28/05:00pm 31.4 NNW 10 13 1008.4 - - - - - - - - -
28/04:30pm 31.5 NW 6 8 1008.2 - - - - - - - - -
28/04:00pm 31.5 W 8 11 1008.2 - - - - - - - - -
28/03:30pm 31.8 SW 9 13 1008.2 - - - - - - - - -
28/03:00pm 32.6 SW 9 14 1008.5 - - - - - - - - -
28/02:30pm 32.5 SSW 9 19 1008.9 - - - - - - - - -
28/02:00pm 32.0 SW 10 15 1009.3 - - - - - - - - -
28/01:30pm 31.4 SW 9 15 1009.7 - - - - - - - - -
28/01:00pm 29.9 WSW 9 12 1010.1 - - - - - - - - -
28/12:30pm 29.8 WSW 7 10 1010.7 - - - - - - - - -
28/12:00pm 29.8 W 7 10 1011.3 - - - - - - - - -
28/11:30am 29.7 WNW 6 8 1011.6 - - - - - - - - -
28/11:00am 30.3 WNW 5 7 1011.7 - - - - - - - - -
28/10:30am 30.0 WNW 7 8 1011.9 - - - - - - - - -
28/10:00am 30.3 NW 6 8 1012.0 - - - - - - - - -
28/09:30am 30.0 N 4 6 1012.2 - - - - - - - - -
28/09:00am 29.5 NNW 4 5 1012.3 - - - - - - - - -
28/08:30am 29.7 NE 4 8 1012.5 - - - - - - - - -
28/08:00am 28.9 NE 5 6 1012.2 - - - - - - - - -
28/07:30am 27.2 ENE 4 7 1011.7 - - - - - - - - -
28/07:00am 25.1 NE 5 8 1011.5 - - - - - - - - -
28/06:30am 23.8 ENE 5 7 1011.4 - - - - - - - - -
28/06:00am 23.2 E 4 6 1011.2 - - - - - - - - -
28/05:30am 23.6 E 5 6 1011.3 - - - - - - - - -
28/05:00am 23.8 E 4 6 1011.1 - - - - - - - - -
28/04:30am 23.5 ESE 5 6 1010.9 - - - - - - - - -
28/04:00am 23.4 ESE 4 5 1010.7 - - - - - - - - -
28/03:30am 24.2 ENE 3 4 1010.6 - - - - - - - - -
28/03:00am 26.4 N 5 7 1010.3 - - - - - - - - -
28/02:30am 26.7 N 5 8 1010.5 - - - - - - - - -
28/02:00am 26.8 NNW 6 8 1010.5 - - - - - - - - -
28/01:30am 27.0 NNW 6 7 1010.8 - - - - - - - - -
28/01:00am 26.8 N 5 7 1011.2 - - - - - - - - -

Other Formats:

Comma delimited format used in spreadsheet applications
http://www.bom.gov.au/fwo/IDD60701/IDD60701.94122.axf

JavaScript Object Notation format (JSON) in row-major order
http://www.bom.gov.au/fwo/IDD60701/IDD60701.94122.json